sensor_id;sensor_type;location;lat;lon;timestamp;pressure;altitude;pressure_sealevel;temperature
71564;BMP180;59391;52.504;13.438;2022-11-21T00:00:47;100128.00;;;4.30
71564;BMP180;59391;52.504;13.438;2022-11-21T00:03:13;100135.00;;;4.30
71564;BMP180;59391;52.504;13.438;2022-11-21T00:05:42;100114.00;;;4.30
71564;BMP180;59391;52.504;13.438;2022-11-21T00:08:10;100105.00;;;4.30
71564;BMP180;59391;52.504;13.438;2022-11-21T00:10:37;100105.00;;;4.30
71564;BMP180;59391;52.504;13.438;2022-11-21T00:13:04;100096.00;;;4.30
71564;BMP180;59391;52.504;13.438;2022-11-21T00:15:30;100077.00;;;4.30
71564;BMP180;59391;52.504;13.438;2022-11-21T00:17:56;100099.00;;;4.40
71564;BMP180;59391;52.504;13.438;2022-11-21T00:20:22;100089.00;;;4.40
71564;BMP180;59391;52.504;13.438;2022-11-21T00:22:54;100080.00;;;4.40
71564;BMP180;59391;52.504;13.438;2022-11-21T00:25:20;100068.00;;;4.40
71564;BMP180;59391;52.504;13.438;2022-11-21T00:27:45;100083.00;;;4.40
71564;BMP180;59391;52.504;13.438;2022-11-21T00:30:12;100075.00;;;4.40
71564;BMP180;59391;52.504;13.438;2022-11-21T00:32:38;100085.00;;;4.30
71564;BMP180;59391;52.504;13.438;2022-11-21T00:35:04;100082.00;;;4.40
71564;BMP180;59391;52.504;13.438;2022-11-21T00:37:32;100043.00;;;4.40
71564;BMP180;59391;52.504;13.438;2022-11-21T00:39:57;100058.00;;;4.40
71564;BMP180;59391;52.504;13.438;2022-11-21T00:42:23;100053.00;;;4.40
71564;BMP180;59391;52.504;13.438;2022-11-21T00:44:49;100058.00;;;4.40
71564;BMP180;59391;52.504;13.438;2022-11-21T00:47:18;100074.00;;;4.40
71564;BMP180;59391;52.504;13.438;2022-11-21T00:49:43;100065.00;;;4.40
71564;BMP180;59391;52.504;13.438;2022-11-21T00:52:09;100058.00;;;4.40
71564;BMP180;59391;52.504;13.438;2022-11-21T00:54:34;100049.00;;;4.40
71564;BMP180;59391;52.504;13.438;2022-11-21T00:57:00;100017.00;;;4.40
71564;BMP180;59391;52.504;13.438;2022-11-21T00:59:25;100054.00;;;4.40
71564;BMP180;59391;52.504;13.438;2022-11-21T01:01:51;100032.00;;;4.40
71564;BMP180;59391;52.504;13.438;2022-11-21T01:04:17;100045.00;;;4.40
71564;BMP180;59391;52.504;13.438;2022-11-21T01:06:42;100013.00;;;4.40
71564;BMP180;59391;52.504;13.438;2022-11-21T01:09:08;100016.00;;;4.30
71564;BMP180;59391;52.504;13.438;2022-11-21T01:15:22;99938.00;;;4.30
71564;BMP180;59391;52.504;13.438;2022-11-21T01:17:48;100033.00;;;4.30
71564;BMP180;59391;52.504;13.438;2022-11-21T01:20:14;99997.00;;;4.30
71564;BMP180;59391;52.504;13.438;2022-11-21T01:22:39;99981.00;;;4.30
71564;BMP180;59391;52.504;13.438;2022-11-21T01:25:05;99994.00;;;4.20
71564;BMP180;59391;52.504;13.438;2022-11-21T01:27:31;100008.00;;;4.20
71564;BMP180;59391;52.504;13.438;2022-11-21T01:29:57;100001.00;;;4.20
71564;BMP180;59391;52.504;13.438;2022-11-21T01:32:22;100008.00;;;4.20
71564;BMP180;59391;52.504;13.438;2022-11-21T01:34:48;100012.00;;;4.20
71564;BMP180;59391;52.504;13.438;2022-11-21T01:37:13;100033.00;;;4.20
71564;BMP180;59391;52.504;13.438;2022-11-21T01:39:39;100011.00;;;4.20
71564;BMP180;59391;52.504;13.438;2022-11-21T01:42:05;100017.00;;;4.30
71564;BMP180;59391;52.504;13.438;2022-11-21T01:44:50;100007.00;;;4.30
71564;BMP180;59391;52.504;13.438;2022-11-21T01:47:16;100016.00;;;4.30
71564;BMP180;59391;52.504;13.438;2022-11-21T01:49:44;100023.00;;;4.20
71564;BMP180;59391;52.504;13.438;2022-11-21T01:52:25;100023.00;;;4.20
71564;BMP180;59391;52.504;13.438;2022-11-21T01:55:04;100013.00;;;4.20
71564;BMP180;59391;52.504;13.438;2022-11-21T01:57:44;100011.00;;;4.20
71564;BMP180;59391;52.504;13.438;2022-11-21T02:00:15;100013.00;;;4.20
71564;BMP180;59391;52.504;13.438;2022-11-21T02:02:47;99990.00;;;4.20
71564;BMP180;59391;52.504;13.438;2022-11-21T02:05:20;100018.00;;;4.10
71564;BMP180;59391;52.504;13.438;2022-11-21T02:07:49;100015.00;;;4.10
71564;BMP180;59391;52.504;13.438;2022-11-21T02:10:16;99994.00;;;4.10
71564;BMP180;59391;52.504;13.438;2022-11-21T02:12:55;100015.00;;;4.00
71564;BMP180;59391;52.504;13.438;2022-11-21T02:15:26;100025.00;;;4.00
71564;BMP180;59391;52.504;13.438;2022-11-21T02:17:53;100024.00;;;3.90
71564;BMP180;59391;52.504;13.438;2022-11-21T02:20:21;100010.00;;;4.00
71564;BMP180;59391;52.504;13.438;2022-11-21T02:23:15;100012.00;;;4.00
71564;BMP180;59391;52.504;13.438;2022-11-21T02:25:43;100015.00;;;4.00
71564;BMP180;59391;52.504;13.438;2022-11-21T02:28:13;100000.00;;;4.00
71564;BMP180;59391;52.504;13.438;2022-11-21T02:30:41;100009.00;;;4.00
71564;BMP180;59391;52.504;13.438;2022-11-21T02:33:08;100034.00;;;4.00
71564;BMP180;59391;52.504;13.438;2022-11-21T02:35:34;99973.00;;;4.00
71564;BMP180;59391;52.504;13.438;2022-11-21T02:38:27;100003.00;;;4.00
71564;BMP180;59391;52.504;13.438;2022-11-21T02:41:17;99993.00;;;4.00
71564;BMP180;59391;52.504;13.438;2022-11-21T02:43:59;99990.00;;;4.00
71564;BMP180;59391;52.504;13.438;2022-11-21T02:46:28;99977.00;;;4.00
71564;BMP180;59391;52.504;13.438;2022-11-21T02:48:55;99960.00;;;4.00
71564;BMP180;59391;52.504;13.438;2022-11-21T02:51:22;99966.00;;;4.00
71564;BMP180;59391;52.504;13.438;2022-11-21T02:53:48;99964.00;;;4.10
71564;BMP180;59391;52.504;13.438;2022-11-21T02:56:14;99971.00;;;4.10
71564;BMP180;59391;52.504;13.438;2022-11-21T02:58:40;99953.00;;;4.10
71564;BMP180;59391;52.504;13.438;2022-11-21T03:01:05;99943.00;;;4.10
71564;BMP180;59391;52.504;13.438;2022-11-21T03:03:31;99929.00;;;4.20
71564;BMP180;59391;52.504;13.438;2022-11-21T03:05:56;99953.00;;;4.10
71564;BMP180;59391;52.504;13.438;2022-11-21T03:08:22;99946.00;;;4.20
71564;BMP180;59391;52.504;13.438;2022-11-21T03:10:48;99975.00;;;4.20
71564;BMP180;59391;52.504;13.438;2022-11-21T03:13:13;99965.00;;;4.20
71564;BMP180;59391;52.504;13.438;2022-11-21T03:15:39;99944.00;;;4.20
71564;BMP180;59391;52.504;13.438;2022-11-21T03:18:05;99923.00;;;4.20
71564;BMP180;59391;52.504;13.438;2022-11-21T03:20:32;99973.00;;;4.30
71564;BMP180;59391;52.504;13.438;2022-11-21T03:22:59;99923.00;;;4.30
71564;BMP180;59391;52.504;13.438;2022-11-21T03:25:25;99952.00;;;4.30
71564;BMP180;59391;52.504;13.438;2022-11-21T03:27:52;99969.00;;;4.40
71564;BMP180;59391;52.504;13.438;2022-11-21T03:30:20;99954.00;;;4.40
71564;BMP180;59391;52.504;13.438;2022-11-21T03:32:46;99936.00;;;4.40
71564;BMP180;59391;52.504;13.438;2022-11-21T03:35:12;99934.00;;;4.40
71564;BMP180;59391;52.504;13.438;2022-11-21T03:37:37;99962.00;;;4.40
71564;BMP180;59391;52.504;13.438;2022-11-21T03:40:04;99967.00;;;4.50
71564;BMP180;59391;52.504;13.438;2022-11-21T03:42:30;99976.00;;;4.50
71564;BMP180;59391;52.504;13.438;2022-11-21T03:44:55;99932.00;;;4.50
71564;BMP180;59391;52.504;13.438;2022-11-21T03:47:21;99967.00;;;4.50
71564;BMP180;59391;52.504;13.438;2022-11-21T03:49:49;99975.00;;;4.30
71564;BMP180;59391;52.504;13.438;2022-11-21T03:52:14;99958.00;;;4.50
71564;BMP180;59391;52.504;13.438;2022-11-21T03:54:42;99975.00;;;4.50
71564;BMP180;59391;52.504;13.438;2022-11-21T03:57:08;99956.00;;;4.50
71564;BMP180;59391;52.504;13.438;2022-11-21T03:59:34;99951.00;;;4.50
71564;BMP180;59391;52.504;13.438;2022-11-21T04:01:59;99973.00;;;4.50
71564;BMP180;59391;52.504;13.438;2022-11-21T04:04:25;99973.00;;;4.40
71564;BMP180;59391;52.504;13.438;2022-11-21T04:06:50;99986.00;;;4.20
71564;BMP180;59391;52.504;13.438;2022-11-21T04:09:16;99947.00;;;4.30
71564;BMP180;59391;52.504;13.438;2022-11-21T04:11:42;99955.00;;;4.30
71564;BMP180;59391;52.504;13.438;2022-11-21T04:14:07;99970.00;;;4.30
71564;BMP180;59391;52.504;13.438;2022-11-21T04:16:33;99978.00;;;4.30
71564;BMP180;59391;52.504;13.438;2022-11-21T04:18:58;99987.00;;;4.30
71564;BMP180;59391;52.504;13.438;2022-11-21T04:21:24;99984.00;;;4.30
71564;BMP180;59391;52.504;13.438;2022-11-21T04:23:52;99991.00;;;4.30
71564;BMP180;59391;52.504;13.438;2022-11-21T04:26:18;99976.00;;;4.40
71564;BMP180;59391;52.504;13.438;2022-11-21T04:28:44;99954.00;;;4.40
71564;BMP180;59391;52.504;13.438;2022-11-21T04:31:09;99986.00;;;4.40
71564;BMP180;59391;52.504;13.438;2022-11-21T04:33:35;99943.00;;;4.40
71564;BMP180;59391;52.504;13.438;2022-11-21T04:36:00;99996.00;;;4.40
71564;BMP180;59391;52.504;13.438;2022-11-21T04:38:26;99956.00;;;4.40
71564;BMP180;59391;52.504;13.438;2022-11-21T04:40:52;99939.00;;;4.20
71564;BMP180;59391;52.504;13.438;2022-11-21T04:43:18;99968.00;;;4.50
71564;BMP180;59391;52.504;13.438;2022-11-21T04:45:43;99989.00;;;4.50
71564;BMP180;59391;52.504;13.438;2022-11-21T04:48:12;99962.00;;;4.50
71564;BMP180;59391;52.504;13.438;2022-11-21T04:50:38;99978.00;;;4.50
71564;BMP180;59391;52.504;13.438;2022-11-21T04:53:03;99982.00;;;4.50
71564;BMP180;59391;52.504;13.438;2022-11-21T04:55:31;99977.00;;;4.50
71564;BMP180;59391;52.504;13.438;2022-11-21T04:57:57;99984.00;;;4.50
71564;BMP180;59391;52.504;13.438;2022-11-21T05:00:23;99982.00;;;4.50
71564;BMP180;59391;52.504;13.438;2022-11-21T05:02:49;99960.00;;;4.60
71564;BMP180;59391;52.504;13.438;2022-11-21T05:05:14;99973.00;;;4.60
71564;BMP180;59391;52.504;13.438;2022-11-21T05:07:40;99984.00;;;4.60
71564;BMP180;59391;52.504;13.438;2022-11-21T05:10:07;99982.00;;;4.60
71564;BMP180;59391;52.504;13.438;2022-11-21T05:12:33;99984.00;;;4.60
71564;BMP180;59391;52.504;13.438;2022-11-21T05:15:18;99971.00;;;4.60
71564;BMP180;59391;52.504;13.438;2022-11-21T05:17:43;99988.00;;;4.60
71564;BMP180;59391;52.504;13.438;2022-11-21T05:20:10;99987.00;;;4.60
71564;BMP180;59391;52.504;13.438;2022-11-21T05:22:36;99993.00;;;4.60
71564;BMP180;59391;52.504;13.438;2022-11-21T05:25:01;100003.00;;;4.50
71564;BMP180;59391;52.504;13.438;2022-11-21T05:27:27;100001.00;;;4.60
71564;BMP180;59391;52.504;13.438;2022-11-21T05:29:53;99996.00;;;4.60
71564;BMP180;59391;52.504;13.438;2022-11-21T05:32:20;99949.00;;;4.50
71564;BMP180;59391;52.504;13.438;2022-11-21T05:34:45;99968.00;;;4.70
71564;BMP180;59391;52.504;13.438;2022-11-21T05:37:11;99995.00;;;4.70
71564;BMP180;59391;52.504;13.438;2022-11-21T05:39:37;99979.00;;;4.70
71564;BMP180;59391;52.504;13.438;2022-11-21T05:42:02;99988.00;;;4.70
71564;BMP180;59391;52.504;13.438;2022-11-21T05:44:28;99986.00;;;4.70
71564;BMP180;59391;52.504;13.438;2022-11-21T05:46:54;99968.00;;;4.70
71564;BMP180;59391;52.504;13.438;2022-11-21T05:49:20;99985.00;;;4.70
71564;BMP180;59391;52.504;13.438;2022-11-21T05:51:45;99979.00;;;4.80
71564;BMP180;59391;52.504;13.438;2022-11-21T05:54:13;99965.00;;;4.80
71564;BMP180;59391;52.504;13.438;2022-11-21T05:56:42;99988.00;;;4.80
71564;BMP180;59391;52.504;13.438;2022-11-21T05:59:12;99981.00;;;4.70
71564;BMP180;59391;52.504;13.438;2022-11-21T06:01:37;99988.00;;;4.80
71564;BMP180;59391;52.504;13.438;2022-11-21T06:04:22;99991.00;;;4.80
71564;BMP180;59391;52.504;13.438;2022-11-21T06:06:48;99966.00;;;4.80
71564;BMP180;59391;52.504;13.438;2022-11-21T06:09:13;99985.00;;;4.90
71564;BMP180;59391;52.504;13.438;2022-11-21T06:11:39;99991.00;;;4.90
71564;BMP180;59391;52.504;13.438;2022-11-21T06:14:05;99892.00;;;4.90
71564;BMP180;59391;52.504;13.438;2022-11-21T06:16:30;99925.00;;;4.90
71564;BMP180;59391;52.504;13.438;2022-11-21T06:18:56;99996.00;;;5.00
71564;BMP180;59391;52.504;13.438;2022-11-21T06:21:28;99963.00;;;5.00
71564;BMP180;59391;52.504;13.438;2022-11-21T06:23:56;99988.00;;;5.00
71564;BMP180;59391;52.504;13.438;2022-11-21T06:26:25;99986.00;;;5.00
71564;BMP180;59391;52.504;13.438;2022-11-21T06:28:51;99978.00;;;5.00
71564;BMP180;59391;52.504;13.438;2022-11-21T06:31:22;99986.00;;;5.00
71564;BMP180;59391;52.504;13.438;2022-11-21T06:33:53;99982.00;;;5.00
71564;BMP180;59391;52.504;13.438;2022-11-21T06:36:19;99984.00;;;5.00
71564;BMP180;59391;52.504;13.438;2022-11-21T06:38:45;99985.00;;;5.10
71564;BMP180;59391;52.504;13.438;2022-11-21T06:41:17;99987.00;;;5.10
71564;BMP180;59391;52.504;13.438;2022-11-21T06:43:43;99995.00;;;5.10
71564;BMP180;59391;52.504;13.438;2022-11-21T06:46:10;99992.00;;;5.10
71564;BMP180;59391;52.504;13.438;2022-11-21T06:48:37;100003.00;;;5.10
71564;BMP180;59391;52.504;13.438;2022-11-21T06:51:05;100001.00;;;5.10
71564;BMP180;59391;52.504;13.438;2022-11-21T06:53:32;99987.00;;;5.20
71564;BMP180;59391;52.504;13.438;2022-11-21T06:55:59;99997.00;;;5.20
71564;BMP180;59391;52.504;13.438;2022-11-21T06:58:25;100000.00;;;5.20
71564;BMP180;59391;52.504;13.438;2022-11-21T07:00:52;100000.00;;;5.20
71564;BMP180;59391;52.504;13.438;2022-11-21T07:03:17;100005.00;;;5.20
71564;BMP180;59391;52.504;13.438;2022-11-21T07:05:43;100008.00;;;5.20
71564;BMP180;59391;52.504;13.438;2022-11-21T07:08:09;100009.00;;;5.20
71564;BMP180;59391;52.504;13.438;2022-11-21T07:10:34;99999.00;;;5.20
71564;BMP180;59391;52.504;13.438;2022-11-21T07:13:01;100009.00;;;5.20
71564;BMP180;59391;52.504;13.438;2022-11-21T07:15:51;100023.00;;;5.20
71564;BMP180;59391;52.504;13.438;2022-11-21T07:18:21;100020.00;;;5.10
71564;BMP180;59391;52.504;13.438;2022-11-21T07:20:48;100027.00;;;5.10
71564;BMP180;59391;52.504;13.438;2022-11-21T07:23:14;100037.00;;;5.10
71564;BMP180;59391;52.504;13.438;2022-11-21T07:25:40;100028.00;;;5.10
71564;BMP180;59391;52.504;13.438;2022-11-21T07:28:07;100037.00;;;5.00
71564;BMP180;59391;52.504;13.438;2022-11-21T07:30:34;100035.00;;;5.00
71564;BMP180;59391;52.504;13.438;2022-11-21T07:33:03;100035.00;;;5.00
71564;BMP180;59391;52.504;13.438;2022-11-21T07:35:31;100041.00;;;4.90
71564;BMP180;59391;52.504;13.438;2022-11-21T07:37:57;100039.00;;;4.90
71564;BMP180;59391;52.504;13.438;2022-11-21T07:40:23;100041.00;;;4.90
71564;BMP180;59391;52.504;13.438;2022-11-21T07:42:48;100038.00;;;4.80
71564;BMP180;59391;52.504;13.438;2022-11-21T07:45:15;100045.00;;;4.80
71564;BMP180;59391;52.504;13.438;2022-11-21T07:47:41;100051.00;;;4.80
71564;BMP180;59391;52.504;13.438;2022-11-21T07:50:09;100052.00;;;4.80
71564;BMP180;59391;52.504;13.438;2022-11-21T07:52:35;100052.00;;;4.80
71564;BMP180;59391;52.504;13.438;2022-11-21T07:55:01;100048.00;;;4.80
71564;BMP180;59391;52.504;13.438;2022-11-21T07:57:29;100047.00;;;4.90
71564;BMP180;59391;52.504;13.438;2022-11-21T07:59:55;100050.00;;;4.90
71564;BMP180;59391;52.504;13.438;2022-11-21T08:02:24;100055.00;;;5.00
71564;BMP180;59391;52.504;13.438;2022-11-21T08:04:50;100053.00;;;5.00
71564;BMP180;59391;52.504;13.438;2022-11-21T08:07:18;100053.00;;;5.00
71564;BMP180;59391;52.504;13.438;2022-11-21T08:09:44;100061.00;;;5.10
71564;BMP180;59391;52.504;13.438;2022-11-21T08:12:11;100065.00;;;5.20
71564;BMP180;59391;52.504;13.438;2022-11-21T08:14:37;100063.00;;;5.20
71564;BMP180;59391;52.504;13.438;2022-11-21T08:17:04;100065.00;;;5.20
71564;BMP180;59391;52.504;13.438;2022-11-21T08:19:30;100061.00;;;5.30
71564;BMP180;59391;52.504;13.438;2022-11-21T08:21:56;100065.00;;;5.30
71564;BMP180;59391;52.504;13.438;2022-11-21T08:24:22;100048.00;;;5.30
71564;BMP180;59391;52.504;13.438;2022-11-21T08:26:47;100069.00;;;5.30
71564;BMP180;59391;52.504;13.438;2022-11-21T08:29:13;100070.00;;;5.40
71564;BMP180;59391;52.504;13.438;2022-11-21T08:31:43;100069.00;;;5.40
71564;BMP180;59391;52.504;13.438;2022-11-21T08:34:10;100077.00;;;5.40
71564;BMP180;59391;52.504;13.438;2022-11-21T08:36:36;100067.00;;;5.40
71564;BMP180;59391;52.504;13.438;2022-11-21T08:39:02;100065.00;;;5.40
71564;BMP180;59391;52.504;13.438;2022-11-21T08:41:28;100091.00;;;5.30
71564;BMP180;59391;52.504;13.438;2022-11-21T08:44:12;100078.00;;;5.30
71564;BMP180;59391;52.504;13.438;2022-11-21T08:46:38;100103.00;;;5.20
71564;BMP180;59391;52.504;13.438;2022-11-21T08:49:05;100097.00;;;5.20
71564;BMP180;59391;52.504;13.438;2022-11-21T08:51:31;100103.00;;;5.20
71564;BMP180;59391;52.504;13.438;2022-11-21T08:53:57;100106.00;;;5.20
71564;BMP180;59391;52.504;13.438;2022-11-21T08:56:24;100107.00;;;5.10
71564;BMP180;59391;52.504;13.438;2022-11-21T08:58:49;100117.00;;;5.20
71564;BMP180;59391;52.504;13.438;2022-11-21T09:01:15;100119.00;;;5.20
71564;BMP180;59391;52.504;13.438;2022-11-21T09:03:41;100117.00;;;5.20
71564;BMP180;59391;52.504;13.438;2022-11-21T09:06:06;100116.00;;;5.20
71564;BMP180;59391;52.504;13.438;2022-11-21T09:08:32;100111.00;;;5.10
71564;BMP180;59391;52.504;13.438;2022-11-21T09:11:09;100102.00;;;5.00
71564;BMP180;59391;52.504;13.438;2022-11-21T09:13:46;100067.00;;;5.00
71564;BMP180;59391;52.504;13.438;2022-11-21T09:16:30;100117.00;;;4.90
71564;BMP180;59391;52.504;13.438;2022-11-21T09:19:14;100107.00;;;4.80
71564;BMP180;59391;52.504;13.438;2022-11-21T09:21:41;100128.00;;;4.70
71564;BMP180;59391;52.504;13.438;2022-11-21T09:24:06;100128.00;;;4.70
71564;BMP180;59391;52.504;13.438;2022-11-21T09:26:32;100130.00;;;4.70
71564;BMP180;59391;52.504;13.438;2022-11-21T09:28:58;100111.00;;;4.70
71564;BMP180;59391;52.504;13.438;2022-11-21T09:31:24;100138.00;;;4.70
71564;BMP180;59391;52.504;13.438;2022-11-21T09:33:49;100131.00;;;4.70
71564;BMP180;59391;52.504;13.438;2022-11-21T09:36:15;100122.00;;;4.60
71564;BMP180;59391;52.504;13.438;2022-11-21T09:38:41;100129.00;;;4.70
71564;BMP180;59391;52.504;13.438;2022-11-21T09:41:26;100140.00;;;4.80
71564;BMP180;59391;52.504;13.438;2022-11-21T09:45:03;100148.00;;;4.80
71564;BMP180;59391;52.504;13.438;2022-11-21T09:47:34;100133.00;;;4.80
71564;BMP180;59391;52.504;13.438;2022-11-21T09:50:34;100137.00;;;4.80
71564;BMP180;59391;52.504;13.438;2022-11-21T09:53:15;100131.00;;;4.80
71564;BMP180;59391;52.504;13.438;2022-11-21T09:58:40;100131.00;;;4.80
71564;BMP180;59391;52.504;13.438;2022-11-21T10:01:11;100126.00;;;4.80
71564;BMP180;59391;52.504;13.438;2022-11-21T10:03:45;100143.00;;;4.80
71564;BMP180;59391;52.504;13.438;2022-11-21T10:06:28;100150.00;;;4.70
71564;BMP180;59391;52.504;13.438;2022-11-21T10:09:46;100146.00;;;4.60
71564;BMP180;59391;52.504;13.438;2022-11-21T10:12:52;100157.00;;;4.60
71564;BMP180;59391;52.504;13.438;2022-11-21T10:18:39;100163.00;;;4.50
71564;BMP180;59391;52.504;13.438;2022-11-21T10:21:57;100151.00;;;4.50
71564;BMP180;59391;52.504;13.438;2022-11-21T10:24:55;100174.00;;;4.60
71564;BMP180;59391;52.504;13.438;2022-11-21T10:27:36;100165.00;;;4.60
71564;BMP180;59391;52.504;13.438;2022-11-21T10:30:16;100159.00;;;4.50
71564;BMP180;59391;52.504;13.438;2022-11-21T10:32:50;100171.00;;;4.50
71564;BMP180;59391;52.504;13.438;2022-11-21T10:35:24;100187.00;;;4.50
71564;BMP180;59391;52.504;13.438;2022-11-21T10:37:58;100191.00;;;4.40
71564;BMP180;59391;52.504;13.438;2022-11-21T10:40:44;100179.00;;;4.40
71564;BMP180;59391;52.504;13.438;2022-11-21T10:46:11;100180.00;;;4.40
71564;BMP180;59391;52.504;13.438;2022-11-21T10:48:36;100181.00;;;4.30
71564;BMP180;59391;52.504;13.438;2022-11-21T10:51:41;100172.00;;;4.40
71564;BMP180;59391;52.504;13.438;2022-11-21T10:54:12;100177.00;;;4.40
71564;BMP180;59391;52.504;13.438;2022-11-21T10:57:25;100188.00;;;4.40
71564;BMP180;59391;52.504;13.438;2022-11-21T11:00:04;100189.00;;;4.40
71564;BMP180;59391;52.504;13.438;2022-11-21T11:05:31;100190.00;;;4.40
71564;BMP180;59391;52.504;13.438;2022-11-21T11:08:07;100194.00;;;4.40
71564;BMP180;59391;52.504;13.438;2022-11-21T11:10:45;100182.00;;;4.40
71564;BMP180;59391;52.504;13.438;2022-11-21T11:13:25;100191.00;;;4.50
71564;BMP180;59391;52.504;13.438;2022-11-21T11:19:04;100191.00;;;4.40
71564;BMP180;59391;52.504;13.438;2022-11-21T11:24:24;100188.00;;;4.50
71564;BMP180;59391;52.504;13.438;2022-11-21T11:27:01;100205.00;;;4.50
71564;BMP180;59391;52.504;13.438;2022-11-21T11:29:32;100185.00;;;4.50
71564;BMP180;59391;52.504;13.438;2022-11-21T11:32:19;100197.00;;;4.50
71564;BMP180;59391;52.504;13.438;2022-11-21T11:34:59;100181.00;;;4.50
71564;BMP180;59391;52.504;13.438;2022-11-21T11:37:37;100192.00;;;4.60
71564;BMP180;59391;52.504;13.438;2022-11-21T11:40:17;100193.00;;;4.60
71564;BMP180;59391;52.504;13.438;2022-11-21T11:42:51;100202.00;;;4.70
71564;BMP180;59391;52.504;13.438;2022-11-21T11:48:40;100193.00;;;4.70
71564;BMP180;59391;52.504;13.438;2022-11-21T11:51:27;100203.00;;;4.70
71564;BMP180;59391;52.504;13.438;2022-11-21T11:54:05;100188.00;;;4.70
71564;BMP180;59391;52.504;13.438;2022-11-21T11:56:35;100185.00;;;4.70
71564;BMP180;59391;52.504;13.438;2022-11-21T11:59:19;100195.00;;;4.80
71564;BMP180;59391;52.504;13.438;2022-11-21T12:01:58;100183.00;;;4.80
71564;BMP180;59391;52.504;13.438;2022-11-21T12:04:34;100178.00;;;4.80
71564;BMP180;59391;52.504;13.438;2022-11-21T12:07:21;100180.00;;;4.80
71564;BMP180;59391;52.504;13.438;2022-11-21T12:10:27;100185.00;;;4.80
71564;BMP180;59391;52.504;13.438;2022-11-21T12:13:09;100185.00;;;4.80
71564;BMP180;59391;52.504;13.438;2022-11-21T12:15:44;100212.00;;;4.60
71564;BMP180;59391;52.504;13.438;2022-11-21T12:23:34;100195.00;;;4.50
71564;BMP180;59391;52.504;13.438;2022-11-21T12:29:20;100181.00;;;4.50
71564;BMP180;59391;52.504;13.438;2022-11-21T12:36:07;100192.00;;;4.50
71564;BMP180;59391;52.504;13.438;2022-11-21T12:39:33;100181.00;;;4.30
71564;BMP180;59391;52.504;13.438;2022-11-21T12:42:23;100191.00;;;4.20
71564;BMP180;59391;52.504;13.438;2022-11-21T12:45:35;100160.00;;;4.20
71564;BMP180;59391;52.504;13.438;2022-11-21T12:48:42;100161.00;;;4.20
71564;BMP180;59391;52.504;13.438;2022-11-21T12:51:59;100181.00;;;4.30
71564;BMP180;59391;52.504;13.438;2022-11-21T12:58:18;100186.00;;;4.40
71564;BMP180;59391;52.504;13.438;2022-11-21T13:01:05;100174.00;;;4.30
71564;BMP180;59391;52.504;13.438;2022-11-21T13:04:28;100172.00;;;4.20
71564;BMP180;59391;52.504;13.438;2022-11-21T13:06:56;100173.00;;;4.20
71564;BMP180;59391;52.504;13.438;2022-11-21T13:09:23;100169.00;;;4.20
71564;BMP180;59391;52.504;13.438;2022-11-21T13:12:13;100160.00;;;4.20
71564;BMP180;59391;52.504;13.438;2022-11-21T13:15:11;100160.00;;;4.20
71564;BMP180;59391;52.504;13.438;2022-11-21T13:18:02;100167.00;;;4.20
71564;BMP180;59391;52.504;13.438;2022-11-21T13:20:32;100154.00;;;4.20
71564;BMP180;59391;52.504;13.438;2022-11-21T13:23:02;100171.00;;;4.20
71564;BMP180;59391;52.504;13.438;2022-11-21T13:30:54;100168.00;;;4.00
71564;BMP180;59391;52.504;13.438;2022-11-21T13:52:31;100138.00;;;3.80
71564;BMP180;59391;52.504;13.438;2022-11-21T13:55:50;100157.00;;;4.00
71564;BMP180;59391;52.504;13.438;2022-11-21T13:59:08;100145.00;;;4.00
71564;BMP180;59391;52.504;13.438;2022-11-21T14:01:58;100146.00;;;4.10
71564;BMP180;59391;52.504;13.438;2022-11-21T14:04:49;100125.00;;;4.00
71564;BMP180;59391;52.504;13.438;2022-11-21T14:07:41;100146.00;;;4.00
71564;BMP180;59391;52.504;13.438;2022-11-21T14:10:32;100123.00;;;4.00
71564;BMP180;59391;52.504;13.438;2022-11-21T14:13:00;100151.00;;;4.00
71564;BMP180;59391;52.504;13.438;2022-11-21T14:15:45;100139.00;;;4.00
71564;BMP180;59391;52.504;13.438;2022-11-21T14:18:23;100106.00;;;4.00
71564;BMP180;59391;52.504;13.438;2022-11-21T14:21:00;100142.00;;;4.00
71564;BMP180;59391;52.504;13.438;2022-11-21T14:23:33;100142.00;;;4.10
71564;BMP180;59391;52.504;13.438;2022-11-21T14:26:04;100145.00;;;4.10
71564;BMP180;59391;52.504;13.438;2022-11-21T14:28:36;100049.00;;;4.10
71564;BMP180;59391;52.504;13.438;2022-11-21T14:31:12;100123.00;;;4.20
71564;BMP180;59391;52.504;13.438;2022-11-21T14:33:43;100110.00;;;4.30
71564;BMP180;59391;52.504;13.438;2022-11-21T14:36:24;100125.00;;;4.30
71564;BMP180;59391;52.504;13.438;2022-11-21T14:38:58;100110.00;;;4.30
71564;BMP180;59391;52.504;13.438;2022-11-21T14:41:25;100112.00;;;4.30
71564;BMP180;59391;52.504;13.438;2022-11-21T14:46:34;100114.00;;;4.40
71564;BMP180;59391;52.504;13.438;2022-11-21T14:52:15;100066.00;;;4.40
71564;BMP180;59391;52.504;13.438;2022-11-21T14:54:48;100118.00;;;4.30
71564;BMP180;59391;52.504;13.438;2022-11-21T14:57:23;100081.00;;;4.30
71564;BMP180;59391;52.504;13.438;2022-11-21T14:59:49;100117.00;;;4.30
71564;BMP180;59391;52.504;13.438;2022-11-21T15:02:23;100130.00;;;4.20
71564;BMP180;59391;52.504;13.438;2022-11-21T15:04:53;100080.00;;;4.20
71564;BMP180;59391;52.504;13.438;2022-11-21T15:07:35;100108.00;;;4.20
71564;BMP180;59391;52.504;13.438;2022-11-21T15:10:03;100116.00;;;4.20
71564;BMP180;59391;52.504;13.438;2022-11-21T15:12:35;100132.00;;;4.20
71564;BMP180;59391;52.504;13.438;2022-11-21T15:17:33;100120.00;;;4.20
71564;BMP180;59391;52.504;13.438;2022-11-21T15:22:37;100138.00;;;4.20
71564;BMP180;59391;52.504;13.438;2022-11-21T15:27:42;100145.00;;;4.20
71564;BMP180;59391;52.504;13.438;2022-11-21T15:38:30;100114.00;;;4.00
71564;BMP180;59391;52.504;13.438;2022-11-21T15:43:43;100138.00;;;3.90
71564;BMP180;59391;52.504;13.438;2022-11-21T15:46:23;100143.00;;;3.90
71564;BMP180;59391;52.504;13.438;2022-11-21T15:48:58;100145.00;;;3.90
71564;BMP180;59391;52.504;13.438;2022-11-21T15:51:37;100140.00;;;3.90
71564;BMP180;59391;52.504;13.438;2022-11-21T15:54:05;100133.00;;;3.90
71564;BMP180;59391;52.504;13.438;2022-11-21T15:56:32;100124.00;;;4.00
71564;BMP180;59391;52.504;13.438;2022-11-21T15:58:58;100118.00;;;4.00